Time;durP1;ratioP1;P1;durP2;ratioP2;P2;SDS_P1;SDS_P2;PMS_P1;PMS_P2;Temp;Humidity;BMP_temperature;BMP_pressure;BME280_temperature;BME280_humidity;BME280_pressure;Samples;Min_cycle;Max_cycle;Signal;HPM_P1;HPM_P2
2021/07/01 00:00:12;;;;;;;1.00;0.80;;;14.60;99.90;;;;;;4984511;28;20237;-58
2021/07/01 00:02:38;;;;;;;1.90;1.00;;;14.30;99.90;;;;;;4982340;28;20227;-58
2021/07/01 00:05:07;;;;;;;0.90;0.70;;;14.10;99.90;;;;;;4979253;28;20241;-58
2021/07/01 00:07:33;;;;;;;1.13;0.93;;;14.20;99.90;;;;;;4972149;28;20536;-58
2021/07/01 00:09:59;;;;;;;1.33;0.80;;;14.20;99.90;;;;;;4986462;28;20752;-58
2021/07/01 00:12:24;;;;;;;0.80;0.80;;;14.40;99.90;;;;;;4985160;28;20195;-58
2021/07/01 00:14:50;;;;;;;0.70;0.70;;;14.60;99.90;;;;;;4984612;28;20243;-58
2021/07/01 00:17:16;;;;;;;0.90;0.80;;;14.30;99.90;;;;;;4981986;28;20208;-59
2021/07/01 00:19:41;;;;;;;0.70;0.70;;;14.20;99.90;;;;;;4980613;28;20533;-58
2021/07/01 00:22:07;;;;;;;1.20;0.77;;;14.60;99.90;;;;;;4983270;28;20199;-59
2021/07/01 00:24:33;;;;;;;0.80;0.80;;;14.20;99.90;;;;;;4976358;28;20188;-58
2021/07/01 00:26:58;;;;;;;1.40;0.70;;;14.50;99.90;;;;;;4985232;28;20187;-58
2021/07/01 00:29:24;;;;;;;1.40;0.73;;;14.40;99.90;;;;;;4986974;28;20237;-58
2021/07/01 00:31:50;;;;;;;0.90;0.80;;;14.50;99.90;;;;;;4971916;28;20310;-59
2021/07/01 00:34:15;;;;;;;1.47;0.90;;;14.40;99.90;;;;;;4987217;28;20193;-59
2021/07/01 00:36:41;;;;;;;0.90;0.80;;;14.50;99.90;;;;;;4987950;28;20230;-57
2021/07/01 00:39:07;;;;;;;0.70;0.60;;;14.30;99.90;;;;;;4977271;28;20219;-59
2021/07/01 00:41:33;;;;;;;0.80;0.60;;;14.40;99.90;;;;;;4973946;28;20185;-58
2021/07/01 00:44:01;;;;;;;1.00;0.90;;;14.60;99.90;;;;;;4972031;28;20184;-59
2021/07/01 00:46:26;;;;;;;1.00;0.90;;;14.60;99.90;;;;;;4985470;28;20275;-58
2021/07/01 00:48:52;;;;;;;1.77;0.80;;;14.50;99.90;;;;;;4983127;28;20302;-59
2021/07/01 00:51:18;;;;;;;0.73;0.60;;;14.30;99.90;;;;;;4987157;28;20237;-58
2021/07/01 00:53:44;;;;;;;1.33;0.90;;;14.60;99.90;;;;;;4983543;28;20192;-58
2021/07/01 00:56:10;;;;;;;1.27;0.60;;;14.60;99.90;;;;;;4973258;28;20677;-58
2021/07/01 00:58:37;;;;;;;0.70;0.63;;;14.50;99.90;;;;;;4979783;28;20295;-58
2021/07/01 01:01:04;;;;;;;1.00;0.80;;;14.60;99.90;;;;;;4976206;28;20571;-58
2021/07/01 01:03:35;;;;;;;0.70;0.63;;;14.50;99.90;;;;;;4981108;28;20184;-58
2021/07/01 01:06:03;;;;;;;0.82;0.60;;;14.80;99.90;;;;;;4983701;28;20254;-59
2021/07/01 01:08:28;;;;;;;0.80;0.70;;;14.50;99.90;;;;;;4985520;28;20212;-58
2021/07/01 01:10:54;;;;;;;0.70;0.70;;;14.50;99.90;;;;;;4984748;28;20474;-58
2021/07/01 01:13:24;;;;;;;0.80;0.70;;;14.60;99.90;;;;;;4984767;28;20657;-59
2021/07/01 01:16:08;;;;;;;0.90;0.80;;;14.50;99.90;;;;;;4975663;28;20530;-58
2021/07/01 01:18:33;;;;;;;0.60;0.60;;;14.60;99.90;;;;;;4975169;28;20232;-58
2021/07/01 01:20:59;;;;;;;0.70;0.60;;;14.50;99.90;;;;;;4979139;28;20187;-58
2021/07/01 01:23:26;;;;;;;0.70;0.50;;;14.90;99.90;;;;;;4990180;28;20891;-58
2021/07/01 01:25:58;;;;;;;0.80;0.70;;;14.70;99.90;;;;;;4978260;28;20685;-58
2021/07/01 01:28:24;;;;;;;0.77;0.68;;;14.70;99.90;;;;;;4992877;28;20218;-59
2021/07/01 01:30:49;;;;;;;0.83;0.60;;;14.70;99.90;;;;;;4989589;28;20237;-58
2021/07/01 01:33:15;;;;;;;3.53;0.70;;;14.80;99.90;;;;;;4986769;28;20999;-57
2021/07/01 01:35:41;;;;;;;1.20;0.60;;;14.70;99.90;;;;;;4987851;28;20307;-57
2021/07/01 01:38:12;;;;;;;0.67;0.57;;;14.70;99.90;;;;;;4988394;28;20222;-60
2021/07/01 01:40:44;;;;;;;0.60;0.50;;;14.00;99.90;;;;;;4983213;28;20427;-59
2021/07/01 01:43:10;;;;;;;0.75;0.65;;;14.50;99.90;;;;;;4988199;28;20657;-58
2021/07/01 01:45:40;;;;;;;0.70;0.60;;;14.50;99.90;;;;;;4982328;28;20188;-58
2021/07/01 01:48:06;;;;;;;0.70;0.57;;;14.70;99.90;;;;;;4988266;28;20844;-58
2021/07/01 01:50:33;;;;;;;0.77;0.57;;;14.70;99.90;;;;;;4983170;28;20188;-58
2021/07/01 01:52:59;;;;;;;1.17;0.60;;;14.50;99.90;;;;;;4977029;28;20450;-59
2021/07/01 01:55:25;;;;;;;0.60;0.60;;;14.60;99.90;;;;;;4979796;28;20274;-59
2021/07/01 01:57:51;;;;;;;1.57;0.50;;;14.70;99.90;;;;;;4984784;28;20252;-58
2021/07/01 02:00:20;;;;;;;0.75;0.50;;;14.80;99.90;;;;;;4982682;28;20333;-58
2021/07/01 02:02:47;;;;;;;0.70;0.52;;;14.40;99.90;;;;;;4986337;28;20187;-59
2021/07/01 02:05:13;;;;;;;0.70;0.70;;;14.50;99.90;;;;;;4984550;28;20181;-60
2021/07/01 02:07:39;;;;;;;0.93;0.50;;;14.70;99.90;;;;;;4990743;28;20210;-58
2021/07/01 02:10:08;;;;;;;1.15;0.80;;;14.70;99.90;;;;;;4987323;28;20175;-58
2021/07/01 02:12:34;;;;;;;0.80;0.60;;;14.50;99.90;;;;;;4987700;28;20183;-58
2021/07/01 02:15:01;;;;;;;1.48;0.75;;;14.50;99.90;;;;;;4990782;28;20616;-58
2021/07/01 02:17:26;;;;;;;0.68;0.60;;;14.50;99.90;;;;;;4990232;28;20274;-59
2021/07/01 02:19:52;;;;;;;0.70;0.60;;;14.50;99.90;;;;;;4987330;28;20220;-59
2021/07/01 02:22:18;;;;;;;0.67;0.50;;;14.40;99.90;;;;;;4983445;28;20278;-58
2021/07/01 02:24:44;;;;;;;0.90;0.63;;;14.60;99.90;;;;;;4978566;28;20220;-58
2021/07/01 02:27:10;;;;;;;2.00;0.90;;;14.70;99.90;;;;;;4985396;28;20458;-58
2021/07/01 02:29:36;;;;;;;0.70;0.60;;;14.40;99.90;;;;;;4979916;28;20207;-58
2021/07/01 02:32:03;;;;;;;1.45;0.70;;;14.20;99.90;;;;;;4983702;28;20184;-58
2021/07/01 02:34:29;;;;;;;0.70;0.70;;;14.50;99.90;;;;;;4997154;28;20239;-59
2021/07/01 02:36:55;;;;;;;0.75;0.75;;;14.30;99.90;;;;;;4980960;28;20188;-58
2021/07/01 02:39:21;;;;;;;2.03;0.68;;;14.40;99.90;;;;;;4978086;28;20239;-58
2021/07/01 02:41:47;;;;;;;1.10;0.70;;;14.30;99.90;;;;;;4982167;28;20735;-58
2021/07/01 02:44:13;;;;;;;1.40;0.60;;;14.60;99.90;;;;;;4981549;28;20183;-58
2021/07/01 02:46:38;;;;;;;1.00;0.87;;;14.50;99.90;;;;;;4981666;28;20440;-58
2021/07/01 02:49:04;;;;;;;1.83;0.80;;;14.70;99.90;;;;;;4983648;28;20219;-59
2021/07/01 02:51:30;;;;;;;0.77;0.70;;;14.60;99.90;;;;;;4978848;28;20660;-59
2021/07/01 02:53:55;;;;;;;0.70;0.60;;;14.60;99.90;;;;;;4983304;28;20265;-58
2021/07/01 02:56:21;;;;;;;0.70;0.70;;;14.50;99.90;;;;;;4975907;28;20203;-58
2021/07/01 02:58:48;;;;;;;0.70;0.67;;;14.80;99.90;;;;;;4977520;28;20223;-58
2021/07/01 03:01:17;;;;;;;0.80;0.75;;;14.70;99.90;;;;;;4987474;28;20576;-58
2021/07/01 03:03:42;;;;;;;0.88;0.65;;;14.60;99.90;;;;;;4986434;28;20187;-58
2021/07/01 03:06:09;;;;;;;0.73;0.70;;;14.90;99.90;;;;;;4981401;28;20602;-58
2021/07/01 03:08:34;;;;;;;1.63;0.75;;;14.60;99.90;;;;;;4988377;28;20211;-59
2021/07/01 03:11:00;;;;;;;0.80;0.60;;;14.70;99.90;;;;;;4981290;28;20690;-57
2021/07/01 03:13:26;;;;;;;0.80;0.70;;;14.60;99.90;;;;;;4976409;28;20262;-58
2021/07/01 03:15:51;;;;;;;2.70;1.57;;;14.60;99.90;;;;;;4989305;28;20559;-57
2021/07/01 03:18:17;;;;;;;0.80;0.60;;;14.90;99.90;;;;;;4987171;28;20207;-58
2021/07/01 03:20:42;;;;;;;2.53;0.87;;;14.70;99.90;;;;;;4980574;28;20658;-58
2021/07/01 03:23:08;;;;;;;0.70;0.70;;;14.60;99.90;;;;;;4986953;28;20207;-58
2021/07/01 03:25:34;;;;;;;1.67;0.80;;;14.70;99.90;;;;;;4980874;28;20194;-58
2021/07/01 03:27:59;;;;;;;0.80;0.80;;;14.50;99.90;;;;;;4986463;28;20616;-58
2021/07/01 03:30:25;;;;;;;1.50;0.70;;;14.60;99.90;;;;;;4990617;28;20207;-58
2021/07/01 03:32:50;;;;;;;0.80;0.80;;;14.60;99.90;;;;;;4983359;28;20204;-58
2021/07/01 03:35:16;;;;;;;1.17;0.60;;;14.80;99.90;;;;;;4981881;28;20195;-58
2021/07/01 03:37:42;;;;;;;1.17;0.80;;;14.60;99.90;;;;;;4986196;28;20224;-58
2021/07/01 03:40:09;;;;;;;1.00;0.60;;;14.60;99.90;;;;;;4981099;28;20188;-58
2021/07/01 03:42:35;;;;;;;1.23;0.60;;;14.50;99.90;;;;;;4980211;28;20571;-58
2021/07/01 03:45:01;;;;;;;1.25;0.80;;;14.70;99.90;;;;;;4975995;28;20562;-57
2021/07/01 03:47:27;;;;;;;1.40;1.00;;;14.80;99.90;;;;;;4982291;28;20612;-58
2021/07/01 03:49:53;;;;;;;1.03;0.60;;;14.60;99.90;;;;;;4981105;28;20195;-58
2021/07/01 03:52:18;;;;;;;3.27;0.70;;;14.40;99.90;;;;;;4981357;28;20187;-57
2021/07/01 03:54:44;;;;;;;0.80;0.77;;;14.30;99.90;;;;;;4981694;28;20195;-57
2021/07/01 03:57:10;;;;;;;1.07;0.60;;;14.50;99.90;;;;;;4979067;28;20190;-56
2021/07/01 03:59:35;;;;;;;2.50;0.80;;;14.60;99.90;;;;;;4981132;28;20211;-56
2021/07/01 04:02:01;;;;;;;0.80;0.67;;;14.40;99.90;;;;;;4974797;28;20196;-56
2021/07/01 04:04:27;;;;;;;0.80;0.80;;;14.50;99.90;;;;;;4978432;28;20187;-57
2021/07/01 04:06:53;;;;;;;0.80;0.80;;;14.80;99.90;;;;;;4982315;28;20435;-58
2021/07/01 04:09:19;;;;;;;1.57;1.00;;;14.50;99.90;;;;;;4976399;28;20210;-58
2021/07/01 04:11:44;;;;;;;2.93;0.90;;;14.40;99.90;;;;;;4979715;28;20184;-56
2021/07/01 04:14:12;;;;;;;0.80;0.80;;;14.30;99.90;;;;;;4980130;28;20191;-56
2021/07/01 04:16:38;;;;;;;0.82;0.80;;;14.60;99.90;;;;;;4980891;28;20661;-56
2021/07/01 04:19:04;;;;;;;1.23;1.10;;;14.70;99.90;;;;;;4979393;28;20698;-57
2021/07/01 04:21:29;;;;;;;1.83;1.03;;;14.50;99.90;;;;;;4975090;28;20273;-57
2021/07/01 04:23:56;;;;;;;0.87;0.80;;;14.50;99.90;;;;;;4980162;28;20195;-56
2021/07/01 04:26:23;;;;;;;1.00;0.90;;;14.60;99.90;;;;;;4977187;28;20212;-62
2021/07/01 04:28:50;;;;;;;0.80;0.70;;;14.60;99.90;;;;;;5000562;28;20413;-59
2021/07/01 04:31:16;;;;;;;1.15;0.90;;;14.80;99.90;;;;;;4974933;28;20184;-56
2021/07/01 04:33:42;;;;;;;1.13;0.90;;;14.90;99.90;;;;;;4974138;28;20191;-56
2021/07/01 04:36:08;;;;;;;1.75;0.75;;;14.70;99.90;;;;;;4978024;28;20187;-56
2021/07/01 04:38:34;;;;;;;1.27;0.93;;;15.00;99.90;;;;;;4978385;28;20590;-57
2021/07/01 04:40:59;;;;;;;1.47;0.83;;;14.90;99.90;;;;;;4973495;28;20195;-56
2021/07/01 04:43:25;;;;;;;1.10;0.93;;;15.00;99.90;;;;;;4979554;28;20738;-58
2021/07/01 04:45:51;;;;;;;1.20;1.10;;;15.10;99.90;;;;;;4973421;28;20703;-55
2021/07/01 04:48:16;;;;;;;0.97;0.77;;;15.00;99.90;;;;;;4982514;28;20214;-55
2021/07/01 04:50:42;;;;;;;2.20;1.00;;;15.10;99.90;;;;;;4979809;28;20253;-57
2021/07/01 04:53:07;;;;;;;1.33;1.23;;;14.80;99.90;;;;;;4983566;28;20196;-55
2021/07/01 04:55:33;;;;;;;1.40;1.30;;;14.80;99.90;;;;;;4983901;28;20192;-56
2021/07/01 04:58:05;;;;;;;1.50;0.80;;;15.30;99.90;;;;;;4976527;28;20215;-56
2021/07/01 05:00:33;;;;;;;1.67;1.10;;;15.10;99.90;;;;;;4979512;28;20441;-55
2021/07/01 05:02:58;;;;;;;1.13;0.82;;;15.10;99.90;;;;;;4989237;28;20290;-55
2021/07/01 05:05:24;;;;;;;0.80;0.70;;;15.40;99.90;;;;;;4987642;28;20275;-55
2021/07/01 05:07:49;;;;;;;1.07;0.70;;;15.30;99.90;;;;;;4986123;28;20687;-56
2021/07/01 05:10:15;;;;;;;1.77;1.10;;;15.40;99.90;;;;;;4982850;28;20673;-55
2021/07/01 05:12:41;;;;;;;2.80;1.77;;;15.40;99.90;;;;;;4982815;28;20227;-55
2021/07/01 05:15:08;;;;;;;1.80;1.00;;;15.10;99.90;;;;;;4979372;28;20216;-56
2021/07/01 05:17:37;;;;;;;2.40;1.08;;;15.40;99.90;;;;;;4989401;28;20462;-61
2021/07/01 05:20:05;;;;;;;1.20;0.80;;;15.20;99.90;;;;;;4986030;28;20675;-55
2021/07/01 05:22:31;;;;;;;1.10;1.00;;;15.80;99.90;;;;;;4978263;28;20321;-55
2021/07/01 05:24:57;;;;;;;1.10;1.00;;;15.70;99.90;;;;;;4978829;28;20567;-56
2021/07/01 05:27:22;;;;;;;0.90;0.90;;;15.80;99.90;;;;;;4983438;28;20196;-55
2021/07/01 05:29:48;;;;;;;1.47;1.30;;;15.90;99.90;;;;;;4986451;28;20191;-56
2021/07/01 05:32:14;;;;;;;1.17;1.07;;;15.80;99.90;;;;;;4978884;28;20515;-55
2021/07/01 05:34:39;;;;;;;2.37;1.30;;;15.70;99.90;;;;;;4979210;28;20516;-55
2021/07/01 05:37:05;;;;;;;1.80;0.97;;;15.80;99.90;;;;;;4977896;28;20208;-55
2021/07/01 05:39:31;;;;;;;1.00;0.80;;;15.90;99.90;;;;;;4985294;28;20475;-56
2021/07/01 05:41:57;;;;;;;1.20;1.10;;;16.00;99.90;;;;;;4980501;28;20179;-56
2021/07/01 05:44:22;;;;;;;1.40;1.23;;;16.10;99.90;;;;;;4989988;28;20675;-55
2021/07/01 05:46:48;;;;;;;1.23;1.10;;;15.80;99.90;;;;;;4991819;28;20815;-56
2021/07/01 05:49:14;;;;;;;1.77;1.10;;;15.90;99.90;;;;;;4985999;28;20208;-56
2021/07/01 05:51:40;;;;;;;1.43;1.00;;;16.10;99.90;;;;;;4979303;28;20199;-55
2021/07/01 05:56:50;;;;;;;2.20;1.48;;;15.90;99.90;;;;;;4978606;28;20287;-55
2021/07/01 05:59:16;;;;;;;1.67;1.20;;;15.80;99.90;;;;;;4980146;28;20298;-56
2021/07/01 06:01:42;;;;;;;1.20;1.10;;;15.90;99.90;;;;;;4989615;28;20192;-56
2021/07/01 06:04:09;;;;;;;1.30;1.20;;;16.10;99.90;;;;;;4978612;28;20185;-57
2021/07/01 06:06:36;;;;;;;0.95;0.90;;;16.10;99.90;;;;;;4983857;28;20935;-56
2021/07/01 06:09:04;;;;;;;1.00;0.80;;;16.10;99.90;;;;;;4982129;28;20239;-57
2021/07/01 06:11:32;;;;;;;2.17;1.42;;;15.80;99.90;;;;;;4983284;28;20573;-56
2021/07/01 06:13:58;;;;;;;1.70;0.93;;;16.00;99.90;;;;;;4978965;28;20196;-58
2021/07/01 06:16:26;;;;;;;1.48;1.38;;;16.10;99.90;;;;;;4971796;28;20219;-59
2021/07/01 06:18:53;;;;;;;1.30;1.20;;;15.90;99.90;;;;;;4982311;28;20571;-56
2021/07/01 06:21:20;;;;;;;1.55;1.45;;;16.00;99.90;;;;;;4986093;28;20583;-56
2021/07/01 06:23:47;;;;;;;3.38;2.40;;;16.40;99.90;;;;;;4985315;28;20191;-55
2021/07/01 06:26:14;;;;;;;1.73;1.30;;;16.30;99.90;;;;;;4986663;28;20223;-56
2021/07/01 06:28:42;;;;;;;1.27;1.17;;;16.50;99.90;;;;;;4982807;28;20207;-57
2021/07/01 06:31:09;;;;;;;2.63;1.40;;;16.30;99.90;;;;;;4981746;28;20653;-57
2021/07/01 06:33:38;;;;;;;1.55;1.45;;;16.40;99.90;;;;;;4979257;28;20199;-56
2021/07/01 06:36:05;;;;;;;1.85;1.73;;;16.40;99.90;;;;;;4985502;28;20179;-56
2021/07/01 06:38:33;;;;;;;2.97;1.80;;;16.60;99.90;;;;;;4983695;28;20215;-56
2021/07/01 06:41:00;;;;;;;2.22;1.85;;;16.60;99.90;;;;;;4984603;28;20207;-56
2021/07/01 06:43:26;;;;;;;2.92;2.40;;;16.30;99.90;;;;;;4979115;28;20239;-56
2021/07/01 06:45:56;;;;;;;2.60;2.00;;;16.30;99.90;;;;;;4975229;28;20192;-55
2021/07/01 06:48:23;;;;;;;2.10;1.80;;;16.30;99.90;;;;;;4977142;28;20696;-58
2021/07/01 06:50:52;;;;;;;2.47;1.70;;;16.40;99.90;;;;;;4981171;28;20191;-57
2021/07/01 06:53:20;;;;;;;4.20;1.77;;;16.60;99.90;;;;;;4978849;28;20188;-57
2021/07/01 06:55:46;;;;;;;2.78;1.90;;;16.50;99.90;;;;;;4984560;28;20246;-58
2021/07/01 06:58:12;;;;;;;2.40;1.77;;;16.60;99.90;;;;;;4989005;28;20223;-58
2021/07/01 07:00:38;;;;;;;1.50;1.40;;;16.60;99.90;;;;;;4983753;28;20447;-57
2021/07/01 07:03:05;;;;;;;2.57;2.27;;;16.40;99.90;;;;;;4987716;28;20797;-55
2021/07/01 07:05:31;;;;;;;2.40;2.20;;;16.40;99.90;;;;;;4981435;28;20436;-56
2021/07/01 07:07:57;;;;;;;2.00;1.90;;;16.30;99.90;;;;;;4979184;28;20294;-57
2021/07/01 07:10:22;;;;;;;1.70;1.60;;;16.50;99.90;;;;;;4979473;28;20215;-57
2021/07/01 07:12:53;;;;;;;1.80;1.57;;;16.00;99.90;;;;;;4979646;28;20234;-57
2021/07/01 07:15:30;;;;;;;2.03;1.83;;;16.50;99.90;;;;;;4978313;28;20191;-55
2021/07/01 07:18:19;;;;;;;1.58;1.45;;;16.50;99.90;;;;;;4986020;28;20576;-55
2021/07/01 07:20:50;;;;;;;1.98;1.70;;;16.60;99.90;;;;;;4970352;28;20200;-55
2021/07/01 07:23:25;;;;;;;2.42;1.30;;;16.70;99.90;;;;;;4978626;28;20234;-55
2021/07/01 07:25:53;;;;;;;2.95;1.70;;;16.90;99.90;;;;;;4981866;28;20194;-56
2021/07/01 07:28:22;;;;;;;2.58;1.80;;;16.90;99.90;;;;;;4983971;28;20695;-57
2021/07/01 07:30:51;;;;;;;1.88;1.75;;;16.70;99.90;;;;;;4972823;28;20196;-56
2021/07/01 07:33:21;;;;;;;3.00;2.20;;;16.80;99.90;;;;;;4985175;28;20187;-55
2021/07/01 07:35:54;;;;;;;2.40;1.70;;;16.90;99.90;;;;;;4979357;28;20215;-55
2021/07/01 07:38:20;;;;;;;1.80;1.50;;;17.00;99.90;;;;;;4982759;28;20227;-56
2021/07/01 07:40:52;;;;;;;3.85;1.90;;;17.20;99.90;;;;;;4979969;28;20664;-56
2021/07/01 07:43:19;;;;;;;1.30;1.20;;;17.20;99.90;;;;;;4986227;28;20198;-55
2021/07/01 07:45:50;;;;;;;2.05;1.88;;;17.20;99.90;;;;;;4972929;28;20184;-58
2021/07/01 07:48:15;;;;;;;2.78;2.15;;;17.50;99.90;;;;;;4986026;28;20222;-59
2021/07/01 07:50:44;;;;;;;1.70;1.60;;;17.80;99.90;;;;;;4980762;28;20459;-56
2021/07/01 07:53:15;;;;;;;2.28;2.08;;;17.80;99.90;;;;;;4987376;28;20188;-55
2021/07/01 07:55:43;;;;;;;2.33;2.10;;;18.00;99.90;;;;;;4978602;28;20289;-56
2021/07/01 07:58:12;;;;;;;1.90;1.80;;;18.10;99.90;;;;;;4986673;28;20214;-55
2021/07/01 08:00:38;;;;;;;2.00;1.63;;;18.30;99.90;;;;;;4979399;28;20192;-57
2021/07/01 08:03:07;;;;;;;1.97;1.87;;;18.40;99.90;;;;;;4980299;28;20190;-56
2021/07/01 08:05:33;;;;;;;3.00;2.15;;;18.50;99.90;;;;;;4985599;28;20442;-56
2021/07/01 08:08:01;;;;;;;2.90;1.80;;;18.50;99.90;;;;;;4983517;28;20261;-56
2021/07/01 08:10:31;;;;;;;1.83;1.73;;;18.40;99.90;;;;;;4985575;28;20243;-57
2021/07/01 08:13:05;;;;;;;2.30;2.10;;;18.40;99.90;;;;;;4970615;28;20272;-56
2021/07/01 08:15:32;;;;;;;2.30;2.10;;;18.50;99.90;;;;;;4979799;28;20187;-57
2021/07/01 08:17:59;;;;;;;2.50;2.30;;;18.50;99.90;;;;;;4974263;28;20236;-54
2021/07/01 08:20:25;;;;;;;3.70;3.40;;;18.50;99.90;;;;;;4980367;28;20179;-55
2021/07/01 08:22:53;;;;;;;6.18;3.08;;;18.60;99.90;;;;;;4982753;28;20197;-56
2021/07/01 08:25:21;;;;;;;3.75;2.80;;;18.60;99.90;;;;;;4983178;28;20191;-56
2021/07/01 08:27:48;;;;;;;3.35;2.83;;;18.60;99.90;;;;;;4980822;28;20217;-53
2021/07/01 08:30:17;;;;;;;2.50;2.10;;;18.60;99.90;;;;;;4981544;28;20187;-54
2021/07/01 08:32:45;;;;;;;2.13;1.98;;;18.80;99.90;;;;;;4984926;28;20660;-54
2021/07/01 08:35:13;;;;;;;2.45;2.20;;;18.80;99.90;;;;;;4981601;28;20192;-56
2021/07/01 08:37:43;;;;;;;2.45;2.25;;;18.80;99.90;;;;;;4982674;28;20245;-58
2021/07/01 08:40:10;;;;;;;2.90;2.70;;;18.90;99.90;;;;;;4998106;28;20191;-58
2021/07/01 08:42:37;;;;;;;3.08;1.80;;;18.90;99.90;;;;;;4982270;28;20664;-56
2021/07/01 08:45:14;;;;;;;2.42;2.22;;;19.00;99.90;;;;;;4981173;28;20187;-54
2021/07/01 08:47:42;;;;;;;3.10;2.58;;;19.20;99.90;;;;;;4986253;28;20253;-55
2021/07/01 08:50:11;;;;;;;2.85;2.65;;;19.20;99.90;;;;;;4982021;28;20183;-54
2021/07/01 08:52:52;;;;;;;3.17;2.28;;;19.20;99.90;;;;;;4979602;28;20240;-55
2021/07/01 08:55:18;;;;;;;2.80;2.58;;;19.10;99.90;;;;;;4992864;28;20318;-55
2021/07/01 08:57:49;;;;;;;2.40;2.20;;;19.00;99.90;;;;;;4998191;28;20328;-55
2021/07/01 09:00:16;;;;;;;2.72;2.45;;;19.10;99.90;;;;;;4978792;28;20187;-56
2021/07/01 09:02:45;;;;;;;2.92;2.47;;;19.00;99.90;;;;;;4983800;28;20191;-59
2021/07/01 09:05:18;;;;;;;2.15;2.03;;;18.90;99.90;;;;;;4985379;28;20904;-56
2021/07/01 09:07:52;;;;;;;2.92;2.60;;;19.00;99.90;;;;;;4988093;28;20718;-55
2021/07/01 09:10:19;;;;;;;2.60;2.40;;;19.10;99.90;;;;;;4986344;28;20198;-57
2021/07/01 09:12:53;;;;;;;2.63;2.40;;;19.20;99.90;;;;;;4979684;28;20212;-59
2021/07/01 09:15:19;;;;;;;2.40;2.30;;;19.40;99.90;;;;;;4998519;28;20195;-57
2021/07/01 09:17:48;;;;;;;2.47;2.27;;;19.40;99.90;;;;;;4979096;28;20216;-56
2021/07/01 09:20:20;;;;;;;2.30;2.20;;;19.40;99.90;;;;;;4977768;28;20960;-57
2021/07/01 09:22:52;;;;;;;2.38;2.17;;;19.50;99.90;;;;;;4984430;28;20573;-57
2021/07/01 09:25:19;;;;;;;2.50;2.30;;;19.50;99.90;;;;;;4996075;28;20180;-56
2021/07/01 09:27:50;;;;;;;3.60;2.45;;;19.50;99.90;;;;;;4988784;28;20217;-57
2021/07/01 09:30:18;;;;;;;2.65;2.45;;;19.40;99.90;;;;;;4986828;28;20208;-57
2021/07/01 09:32:45;;;;;;;2.55;2.35;;;19.20;99.90;;;;;;4983624;28;20645;-57
2021/07/01 09:35:12;;;;;;;2.83;2.63;;;19.20;99.90;;;;;;4985025;28;20684;-57
2021/07/01 09:37:43;;;;;;;2.63;2.42;;;19.10;99.90;;;;;;4984029;28;20288;-57
2021/07/01 09:40:11;;;;;;;2.40;2.20;;;19.10;99.90;;;;;;4991510;28;20230;-56
2021/07/01 09:42:38;;;;;;;2.95;2.75;;;19.30;99.90;;;;;;4991649;28;20191;-57
2021/07/01 09:45:24;;;;;;;2.80;2.60;;;19.60;99.90;;;;;;4988930;28;20678;-56
2021/07/01 09:47:55;;;;;;;2.40;2.20;;;20.10;99.60;;;;;;4994695;28;20208;-57
2021/07/01 09:50:26;;;;;;;2.20;2.00;;;20.50;98.40;;;;;;4989774;28;20195;-56
2021/07/01 09:52:55;;;;;;;2.40;2.20;;;20.70;97.70;;;;;;4987892;28;20192;-61
2021/07/01 09:55:25;;;;;;;3.65;3.42;;;20.80;97.00;;;;;;4986147;28;20202;-57
2021/07/01 09:57:54;;;;;;;2.42;2.22;;;20.90;97.00;;;;;;4984311;28;20305;-57
2021/07/01 10:00:20;;;;;;;3.00;2.25;;;20.90;96.50;;;;;;4990444;28;20187;-56
2021/07/01 10:03:00;;;;;;;2.40;2.20;;;20.60;97.00;;;;;;4981893;28;20275;-56
2021/07/01 10:05:28;;;;;;;2.88;2.67;;;20.60;97.00;;;;;;4978656;28;20273;-56
2021/07/01 10:07:54;;;;;;;4.15;2.20;;;20.70;97.30;;;;;;4990937;28;20664;-56
2021/07/01 10:10:21;;;;;;;2.50;2.30;;;20.70;96.20;;;;;;4989833;28;21007;-57
2021/07/01 10:13:14;;;;;;;2.33;2.13;;;20.50;97.10;;;;;;4990823;28;20214;-57
2021/07/01 10:15:41;;;;;;;3.75;2.40;;;20.20;96.90;;;;;;4986062;28;20199;-57
2021/07/01 10:18:10;;;;;;;2.30;2.10;;;20.20;97.00;;;;;;4990348;28;20579;-57
2021/07/01 10:20:40;;;;;;;2.40;2.20;;;20.10;97.50;;;;;;4989497;28;20524;-57
2021/07/01 10:23:25;;;;;;;2.22;2.03;;;19.80;98.00;;;;;;4981366;28;20576;-56
2021/07/01 10:25:59;;;;;;;2.38;1.90;;;19.50;97.70;;;;;;4991017;28;20221;-57
2021/07/01 10:28:27;;;;;;;1.88;1.77;;;19.50;97.80;;;;;;4991175;28;20228;-56
2021/07/01 10:31:01;;;;;;;1.80;1.70;;;19.40;97.70;;;;;;4979227;28;20796;-57
2021/07/01 10:33:29;;;;;;;2.88;2.67;;;19.30;97.70;;;;;;4983877;28;20197;-56
2021/07/01 10:36:04;;;;;;;2.20;2.00;;;19.20;98.30;;;;;;4975633;28;20222;-56
2021/07/01 10:38:46;;;;;;;2.72;2.17;;;19.20;98.70;;;;;;4986691;28;20563;-57
2021/07/01 10:41:24;;;;;;;2.53;2.33;;;19.20;98.60;;;;;;4979467;28;20196;-57
2021/07/01 10:43:50;;;;;;;1.95;1.85;;;19.00;98.60;;;;;;4990517;28;20273;-57
2021/07/01 10:46:16;;;;;;;2.25;2.05;;;19.00;99.10;;;;;;4988703;28;20195;-57
2021/07/01 10:48:53;;;;;;;2.77;2.57;;;18.90;99.50;;;;;;4989074;28;20649;-56
2021/07/01 10:51:22;;;;;;;3.92;3.63;;;18.90;99.80;;;;;;4987394;28;20970;-57
2021/07/01 10:53:48;;;;;;;2.90;2.70;;;18.80;99.80;;;;;;4975245;28;20274;-57
2021/07/01 10:56:16;;;;;;;3.20;2.33;;;19.00;99.90;;;;;;4983732;28;20275;-57
2021/07/01 10:58:43;;;;;;;3.10;2.40;;;18.80;99.90;;;;;;4989868;28;20298;-56
2021/07/01 11:01:27;;;;;;;2.20;2.00;;;18.70;99.90;;;;;;4980692;28;20184;-57
2021/07/01 11:04:04;;;;;;;2.65;2.45;;;18.70;99.90;;;;;;4975849;28;20201;-56
2021/07/01 11:06:30;;;;;;;2.42;2.30;;;18.50;99.90;;;;;;4974796;28;20188;-56
2021/07/01 11:08:57;;;;;;;3.17;2.23;;;18.50;99.90;;;;;;4987422;28;20593;-57
2021/07/01 11:11:29;;;;;;;21.30;19.33;;;18.30;99.90;;;;;;4985558;28;20434;-56
2021/07/01 11:13:59;;;;;;;2.30;1.80;;;18.10;99.90;;;;;;4986301;28;20191;-56
2021/07/01 11:16:59;;;;;;;2.80;2.60;;;17.90;99.90;;;;;;4987784;28;20217;-57
2021/07/01 11:19:42;;;;;;;2.60;2.40;;;18.00;99.90;;;;;;4973361;28;20743;-57
2021/07/01 11:22:08;;;;;;;2.20;2.00;;;18.00;99.90;;;;;;4974526;28;20196;-57
2021/07/01 11:24:39;;;;;;;3.95;3.40;;;17.90;99.90;;;;;;4980495;28;20195;-56
2021/07/01 11:27:05;;;;;;;2.83;2.30;;;17.80;99.90;;;;;;4983927;28;20199;-57
2021/07/01 11:29:44;;;;;;;2.73;2.20;;;17.80;99.90;;;;;;4977531;28;20286;-56
2021/07/01 11:32:16;;;;;;;2.60;2.40;;;17.80;99.90;;;;;;4978248;28;20443;-55
2021/07/01 11:34:44;;;;;;;2.30;2.10;;;17.80;99.90;;;;;;4974253;28;20195;-57
2021/07/01 11:37:10;;;;;;;2.65;2.45;;;17.70;99.90;;;;;;4987276;28;20279;-57
2021/07/01 11:39:39;;;;;;;2.93;2.27;;;18.00;99.90;;;;;;4973703;28;20215;-56
2021/07/01 11:42:06;;;;;;;2.33;1.67;;;18.10;99.90;;;;;;4977162;28;20490;-57
2021/07/01 11:44:33;;;;;;;2.20;2.00;;;18.20;99.90;;;;;;4978417;28;20278;-57
2021/07/01 11:47:01;;;;;;;2.55;2.22;;;18.20;99.90;;;;;;4973404;28;20180;-57
2021/07/01 11:49:31;;;;;;;2.35;2.15;;;18.10;99.90;;;;;;4974979;28;20207;-57
2021/07/01 11:51:58;;;;;;;8.43;2.05;;;18.10;99.90;;;;;;4977511;28;20206;-56
2021/07/01 11:54:25;;;;;;;2.67;2.30;;;18.00;99.90;;;;;;4976800;28;20195;-57
2021/07/01 11:56:59;;;;;;;2.47;2.28;;;18.00;99.90;;;;;;4984520;28;20179;-57
2021/07/01 11:59:34;;;;;;;2.15;1.95;;;18.30;99.90;;;;;;4976327;28;20211;-57
2021/07/01 12:02:02;;;;;;;3.55;2.25;;;18.20;99.90;;;;;;4995124;28;20206;-57
2021/07/01 12:04:36;;;;;;;2.65;2.45;;;18.30;99.90;;;;;;4978810;28;20527;-57
2021/07/01 12:07:02;;;;;;;2.40;2.08;;;18.50;99.90;;;;;;4972328;28;20236;-56
2021/07/01 12:09:29;;;;;;;2.50;2.30;;;18.80;99.90;;;;;;4975704;28;20353;-57
2021/07/01 12:12:03;;;;;;;2.28;2.08;;;18.70;99.90;;;;;;4979696;28;20813;-57
2021/07/01 12:14:34;;;;;;;2.20;2.10;;;19.10;99.90;;;;;;4990728;28;20269;-57
2021/07/01 12:17:00;;;;;;;2.92;2.05;;;19.60;99.90;;;;;;4978660;28;20192;-56
2021/07/01 12:19:48;;;;;;;2.33;2.13;;;19.70;99.90;;;;;;4985143;28;20222;-57
2021/07/01 12:22:41;;;;;;;2.15;2.03;;;19.40;99.60;;;;;;4980132;28;20656;-57
2021/07/01 12:25:26;;;;;;;2.85;2.65;;;19.40;99.90;;;;;;4974204;28;20194;-57
2021/07/01 12:28:04;;;;;;;2.65;2.40;;;19.30;99.90;;;;;;4981013;28;20369;-57
2021/07/01 12:30:50;;;;;;;4.50;3.70;;;19.30;99.90;;;;;;4995397;28;20183;-57
2021/07/01 12:33:42;;;;;;;2.90;2.70;;;19.20;99.90;;;;;;4982974;28;20183;-57
2021/07/01 12:36:20;;;;;;;2.97;2.70;;;19.70;98.50;;;;;;4976782;28;20191;-57
2021/07/01 12:39:08;;;;;;;3.75;2.55;;;20.10;98.10;;;;;;4977052;28;20715;-57
2021/07/01 12:41:36;;;;;;;2.85;2.65;;;20.40;96.80;;;;;;4984010;28;20210;-57
2021/07/01 12:44:07;;;;;;;2.95;2.72;;;20.80;95.80;;;;;;4984391;28;20191;-57
2021/07/01 12:46:42;;;;;;;3.65;3.30;;;21.00;95.20;;;;;;4984968;28;20652;-58
2021/07/01 12:49:32;;;;;;;2.67;2.47;;;21.00;95.10;;;;;;4981613;28;20219;-57
2021/07/01 12:52:12;;;;;;;3.03;2.70;;;20.80;95.20;;;;;;4974914;28;20254;-57
2021/07/01 12:54:39;;;;;;;3.80;3.50;;;20.40;95.70;;;;;;4984639;28;20199;-57
2021/07/01 12:57:07;;;;;;;2.90;2.65;;;20.30;94.80;;;;;;4979967;28;20330;-57